Time;durP1;ratioP1;P1;durP2;ratioP2;P2;SDS_P1;SDS_P2;PMS_P1;PMS_P2;Temp;Humidity;BMP_temperature;BMP_pressure;BME280_temperature;BME280_humidity;BME280_pressure;Samples;Min_cycle;Max_cycle;Signal;HPM_P1;HPM_P2
2023/11/27 00:08:54;;;;;;;9.90;3.17;;;;;;;7.16;100.00;96490.66;31065059;28;20400;-79
2023/11/27 00:23:56;;;;;;;1.70;1.50;;;;;;;6.88;100.00;96581.41;31058744;28;20066;-83
2023/11/27 00:38:58;;;;;;;0.73;0.73;;;;;;;6.73;100.00;96678.59;31056729;28;20080;-81
2023/11/27 00:54:00;;;;;;;0.93;0.70;;;;;;;6.55;100.00;96750.91;31082595;28;20101;-83
2023/11/27 01:09:03;;;;;;;0.97;0.70;;;;;;;6.33;100.00;96816.78;31068041;28;20496;-82
2023/11/27 01:24:05;;;;;;;1.63;1.50;;;;;;;6.20;100.00;96899.81;31087892;28;20507;-85
2023/11/27 01:39:08;;;;;;;3.73;2.37;;;;;;;6.00;100.00;96967.78;31101547;28;20141;-82
2023/11/27 01:54:10;;;;;;;6.67;3.27;;;;;;;5.81;100.00;97026.41;31051097;28;20084;-82
2023/11/27 02:09:13;;;;;;;4.87;3.03;;;;;;;5.20;100.00;97108.50;31093852;28;20057;-82
2023/11/27 02:24:15;;;;;;;3.40;3.10;;;;;;;4.88;100.00;97190.59;31109039;28;20515;-82
2023/11/27 02:39:17;;;;;;;2.97;2.10;;;;;;;4.71;100.00;97243.91;31078961;28;20069;-79
2023/11/27 02:54:21;;;;;;;5.40;3.33;;;;;;;4.65;100.00;97309.44;31067375;28;20080;-79
2023/11/27 03:09:23;;;;;;;3.37;2.53;;;;;;;4.43;100.00;97361.31;31103646;28;20090;-80
2023/11/27 03:24:25;;;;;;;3.07;2.73;;;;;;;4.48;100.00;97448.66;31087411;28;20398;-77
2023/11/27 03:39:27;;;;;;;3.60;2.60;;;;;;;4.38;100.00;97498.88;31041579;28;20539;-77
2023/11/27 03:54:29;;;;;;;3.63;3.00;;;;;;;4.22;100.00;97550.13;31058287;28;20488;-78
2023/11/27 04:09:32;;;;;;;4.63;3.03;;;;;;;4.04;100.00;97614.38;31060957;28;20097;-76
2023/11/27 04:24:34;;;;;;;6.00;2.73;;;;;;;3.97;100.00;97684.44;31093812;28;20052;-77
2023/11/27 04:39:36;;;;;;;3.27;2.97;;;;;;;3.99;100.00;97731.16;31080944;28;20052;-76
2023/11/27 04:54:38;;;;;;;5.47;3.80;;;;;;;3.80;100.00;97767.00;31084284;28;20494;-75
2023/11/27 05:09:40;;;;;;;5.43;3.53;;;;;;;3.70;100.00;97843.19;31087413;28;20400;-75
2023/11/27 05:24:42;;;;;;;4.50;3.60;;;;;;;3.27;100.00;97876.53;31094293;28;20052;-76
2023/11/27 05:39:44;;;;;;;4.70;3.63;;;;;;;3.20;100.00;97934.94;31111853;28;20471;-75
2023/11/27 05:54:46;;;;;;;6.40;4.10;;;;;;;3.17;100.00;97990.16;31064862;28;20141;-77
2023/11/27 06:09:49;;;;;;;5.87;3.47;;;;;;;3.31;100.00;98026.59;31077283;28;20139;-78
2023/11/27 06:24:51;;;;;;;4.13;2.80;;;;;;;3.27;100.00;98079.59;31088211;28;20048;-76
2023/11/27 06:39:56;;;;;;;6.63;3.03;;;;;;;3.58;100.00;98112.94;31088824;28;20511;-76
2023/11/27 06:54:59;;;;;;;4.73;3.47;;;;;;;3.68;100.00;98152.22;31037248;28;20423;-74
2023/11/27 07:10:02;;;;;;;5.97;3.87;;;;;;;3.57;100.00;98175.84;31086642;28;20093;-76
2023/11/27 07:25:05;;;;;;;4.03;3.03;;;;;;;3.51;100.00;98225.81;31088552;28;20053;-75
2023/11/27 07:40:14;;;;;;;12.50;4.30;;;;;;;3.49;100.00;98268.38;31060132;28;20495;-76
2023/11/27 07:55:17;;;;;;;3.87;3.07;;;;;;;3.32;100.00;98307.78;31057066;28;20120;-77
2023/11/27 08:10:23;;;;;;;5.53;3.90;;;;;;;3.70;100.00;98348.44;31046137;28;20117;-76
2023/11/27 08:25:37;;;;;;;;;;;;;;;4.10;100.00;98380.59;31057774;28;20049;-77
2023/11/27 08:40:41;;;;;;;6.30;3.83;;;;;;;4.30;100.00;98400.13;31061696;28;19932;-76
2023/11/27 08:55:43;;;;;;;6.90;3.70;;;;;;;4.43;92.83;98403.69;31057208;28;20459;-77
2023/11/27 09:10:48;;;;;;;9.87;5.03;;;;;;;5.29;86.34;98417.78;31132115;28;20057;-77
2023/11/27 09:25:50;;;;;;;6.27;4.07;;;;;;;6.12;79.67;98420.59;31096225;28;20435;-81
2023/11/27 09:40:53;;;;;;;6.63;4.20;;;;;;;4.26;80.39;98442.41;31081980;28;20054;-76
2023/11/27 09:55:56;;;;;;;8.90;3.97;;;;;;;4.41;82.34;98475.88;31081432;28;20176;-85
2023/11/27 10:10:59;;;;;;;8.77;5.10;;;;;;;4.50;81.35;98477.25;31073013;28;20080;-78
2023/11/27 10:26:03;;;;;;;6.07;4.00;;;;;;;5.34;80.03;98500.69;31067330;28;20058;-79
2023/11/27 10:41:07;;;;;;;4.37;2.87;;;;;;;5.85;79.37;98528.66;31099488;28;20050;-80
2023/11/27 10:56:09;;;;;;;4.80;3.53;;;;;;;6.44;73.19;98549.03;31073393;28;20058;-76
2023/11/27 11:11:13;;;;;;;4.73;2.73;;;;;;;8.22;65.21;98557.78;31071220;28;20423;-79
2023/11/27 11:26:38;;;;;;;4.77;3.03;;;;;;;9.38;63.43;98602.66;31071014;28;20137;-79
2023/11/27 11:41:57;;;;;;;6.57;3.50;;;;;;;7.41;64.44;98653.00;31067386;28;20053;-77
2023/11/27 11:57:31;;;;;;;5.00;3.17;;;;;;;7.31;66.57;98686.50;31061991;28;20505;-76
2023/11/27 12:12:33;;;;;;;4.10;2.90;;;;;;;6.60;67.45;98710.78;31019130;28;20078;-75
2023/11/27 12:27:37;;;;;;;5.87;3.17;;;;;;;6.10;68.47;98703.91;31059821;28;20069;-75
2023/11/27 12:42:40;;;;;;;6.20;2.97;;;;;;;5.76;70.98;98741.97;31089441;28;20618;-79
2023/11/27 12:57:45;;;;;;;5.50;2.97;;;;;;;5.45;72.86;98778.41;31084517;28;20053;-81
2023/11/27 13:12:48;;;;;;;6.77;3.03;;;;;;;5.26;74.48;98798.00;31104870;28;20054;-82
2023/11/27 13:27:52;;;;;;;6.97;3.83;;;;;;;5.18;76.82;98837.75;31075123;28;20123;-82
2023/11/27 13:42:54;;;;;;;5.40;2.90;;;;;;;5.09;77.87;98856.34;31103180;28;20046;-81
2023/11/27 13:57:56;;;;;;;6.00;3.50;;;;;;;5.08;77.49;98874.41;31096874;28;20137;-78
2023/11/27 14:13:08;;;;;;;6.40;2.67;;;;;;;4.96;77.35;98880.38;31047796;28;20468;-78
2023/11/27 14:43:32;;;;;;;3.10;2.80;;;;;;;4.91;75.84;98937.34;31070916;28;20161;-77
2023/11/27 14:58:34;;;;;;;5.83;3.87;;;;;;;4.77;76.23;98954.44;31066847;28;20085;-76
2023/11/27 15:13:36;;;;;;;6.60;3.47;;;;;;;4.68;78.02;98996.44;31046603;28;20420;-75
2023/11/27 15:28:38;;;;;;;6.57;3.80;;;;;;;4.79;80.11;98999.72;31060856;28;20058;-77
2023/11/27 15:43:41;;;;;;;5.53;3.07;;;;;;;4.66;83.28;99039.09;31058931;28;20124;-77
2023/11/27 15:58:46;;;;;;;8.77;3.67;;;;;;;4.64;85.33;99076.38;31062284;28;20054;-76
2023/11/27 16:13:49;;;;;;;10.03;4.23;;;;;;;4.55;84.92;99092.22;31090540;28;20160;-77
2023/11/27 16:28:56;;;;;;;4.73;2.87;;;;;;;4.41;86.04;99110.03;31121944;28;20100;-76
2023/11/27 16:43:59;;;;;;;5.97;2.57;;;;;;;4.24;88.70;99127.09;31123577;28;20132;-77
2023/11/27 16:59:02;;;;;;;5.07;2.90;;;;;;;4.21;89.83;99138.63;31092138;28;20060;-75
2023/11/27 17:14:04;;;;;;;4.23;2.73;;;;;;;3.45;99.40;99169.13;31114528;28;20057;-78
2023/11/27 17:29:08;;;;;;;5.73;3.07;;;;;;;3.43;100.00;99182.16;31070400;28;20512;-79
2023/11/27 17:44:10;;;;;;;5.40;3.70;;;;;;;3.53;100.00;99188.66;31072737;28;20455;-77
2023/11/27 17:59:14;;;;;;;9.03;4.27;;;;;;;3.57;99.73;99219.66;31073777;28;20060;-79
2023/11/27 18:14:17;;;;;;;5.90;3.67;;;;;;;3.21;100.00;99245.13;31073096;28;20125;-77
2023/11/27 18:29:19;;;;;;;8.90;4.33;;;;;;;3.20;100.00;99262.38;31060651;28;20060;-77
2023/11/27 18:44:23;;;;;;;6.90;4.17;;;;;;;3.25;100.00;99280.75;31075287;28;20140;-77
2023/11/27 18:59:25;;;;;;;9.83;5.50;;;;;;;3.15;100.00;99300.31;31079815;28;20058;-78
2023/11/27 19:14:27;;;;;;;9.07;5.93;;;;;;;2.95;100.00;99308.78;31089224;28;20495;-78
2023/11/27 19:29:30;;;;;;;9.10;4.33;;;;;;;3.76;97.65;99313.13;31068198;28;20061;-77
2023/11/27 19:44:32;;;;;;;10.67;5.63;;;;;;;3.83;93.22;99328.41;31092603;28;20089;-77
2023/11/27 19:59:34;;;;;;;7.67;4.47;;;;;;;3.80;91.77;99328.44;31063725;28;20054;-79
2023/11/27 20:14:36;;;;;;;9.07;5.47;;;;;;;3.62;92.21;99350.00;31056541;28;20064;-76
2023/11/27 20:29:44;;;;;;;16.40;5.97;;;;;;;3.83;92.80;99375.97;31074170;28;20149;-78
2023/11/27 20:44:47;;;;;;;7.20;4.57;;;;;;;3.87;89.81;99398.97;31066443;28;20042;-75
2023/11/27 20:59:56;;;;;;;7.93;5.50;;;;;;;4.18;89.48;99396.56;31092817;28;20060;-75
2023/11/27 21:14:59;;;;;;;7.87;4.43;;;;;;;4.36;89.48;99414.09;31107551;28;20507;-77
2023/11/27 21:30:01;;;;;;;5.50;4.17;;;;;;;4.17;87.17;99411.91;31080514;28;20573;-75
2023/11/27 21:45:03;;;;;;;6.83;3.50;;;;;;;4.30;86.99;99426.41;31101439;28;20088;-76
2023/11/27 22:00:10;;;;;;;5.80;3.43;;;;;;;4.09;88.22;99442.63;31052872;28;20082;-76
2023/11/27 22:15:17;;;;;;;5.80;4.40;;;;;;;3.82;86.92;99439.66;31087056;28;20492;-75
2023/11/27 22:30:19;;;;;;;8.90;4.97;;;;;;;3.75;87.57;99458.47;31066150;28;20054;-74
2023/11/27 22:45:21;;;;;;;8.80;4.43;;;;;;;3.81;84.71;99469.56;31077350;28;20544;-75
2023/11/27 23:00:26;;;;;;;6.93;4.27;;;;;;;3.96;84.98;99473.78;31099268;28;20141;-76
2023/11/27 23:15:28;;;;;;;9.27;3.70;;;;;;;4.11;83.33;99491.34;31053451;28;20451;-75
2023/11/27 23:30:30;;;;;;;7.90;5.03;;;;;;;4.29;84.33;99510.84;31082278;28;20140;-75
2023/11/27 23:45:32;;;;;;;6.57;3.53;;;;;;;4.28;82.37;99524.69;31059673;28;20054;-75
